Flight Track Log - Related Links

Times and Time Zones

All times are in EDT time to prevent confusion due to time zone crossing. See the PDT4142 flight status page for this flight to view local times or setup timezone preferences in your user account.


Time Position Orientation Groundspeed Altitude Reporting Facility
EDT Latitude Longitude Course Direction KTS MPH feet Rate Location/Type
Sat 01:48:15 PM 39.9000 -75.2500 311° West 133 153 600  Level Philadelphia TRACON
Sat 01:49:03 PM 39.9167 -75.2833 303° West 158 182 1,500 1,111 Climbing Philadelphia TRACON
Sat 01:50:03 PM 39.9333 -75.3333 294° West 154 177 2,600 1,050 Climbing Philadelphia TRACON
Sat 01:51:03 PM 39.9500 -75.3833 294° West 152 175 3,600 957 Climbing Philadelphia TRACON
Sat 01:51:37 PM 39.9578 -75.4083 292° West 155 178 4,100 1,063 Climbing New York Center
Sat 01:52:39 PM 40.0019 -75.4322 337° Northwest 161 185 5,300 1,000 Climbing New York Center
Sat 01:53:00 PM 40.2324 -75.5735 311° West  Level FlightAware Approximate
Sat 01:53:43 PM 40.0433 -75.4569 335° Northwest 161 185 6,200  Level New York Center
Sat 01:54:46 PM 40.0869 -75.4861 333° Northwest 162 186 7,200 919 Climbing New York Center
Sat 01:55:47 PM 40.1322 -75.5047 343° North 168 193 8,100 919 Climbing New York Center
Sat 01:56:50 PM 40.1803 -75.5339 335° Northwest 174 200 9,100 1,065 Climbing New York Center
Sat 01:57:51 PM 40.2239 -75.5639 332° Northwest 169 194 10,300 1,008 Climbing New York Center
Sat 01:58:55 PM 40.2489 -75.6158 302° West 161 185 11,200 823 Climbing New York Center
Sat 01:59:55 PM 40.2794 -75.6561 315° West 162 186 12,000 390 Climbing New York Center
Sat 02:00:58 PM 40.3225 -75.6961 325° Northwest 186 214 12,000 -48 Level New York Center
Sat 02:02:01 PM 40.3814 -75.7203 343° North 210 242 11,900  Descending New York Center
Sat 02:03:02 PM 40.4372 -75.7594 332° Northwest 214 246 12,000 48 Climbing New York Center
Sat 02:04:06 PM 40.4964 -75.7964 335° Northwest 221 254 12,000  Level New York Center
Sat 02:05:07 PM 40.5586 -75.8219 343° North 222 255 12,000  Level New York Center
Sat 02:06:08 PM 40.6183 -75.8550 337° Northwest 222 255 12,000  Level New York Center
Sat 02:07:13 PM 40.6758 -75.8933 333° Northwest 222 255 12,000 48 Level New York Center
Sat 02:08:14 PM 40.7289 -75.9289 333° Northwest 222 255 12,100 49 Climbing New York Center
Sat 02:09:16 PM 40.7897 -75.9561 341° North 222 255 12,100  Level New York Center
Sat 02:10:19 PM 40.8514 -75.9872 339° North 222 255 12,100  Level New York Center
Sat 02:11:21 PM 40.9064 -76.0253 332° Northwest 221 254 12,100 -48 Level New York Center
Sat 02:12:23 PM 40.9669 -76.0567 339° North 221 254 12,000 -48 Descending New York Center
Sat 02:13:25 PM 41.0267 -76.0917 336° Northwest 222 255 12,000  Level New York Center
Sat 02:14:27 PM 41.0856 -76.1258 336° Northwest 222 255 12,000  Level New York Center
Sat 02:15:28 PM 41.1458 -76.1556 340° North 221 254 12,000  Level New York Center
Sat 02:16:32 PM 41.1997 -76.1883 335° Northwest 221 254 12,000  Level New York Center
Sat 02:17:33 PM 41.2617 -76.2061 348° North 222 255 12,000  Level New York Center
Sat 02:18:37 PM 41.3289 -76.1914 North 233 268 12,000  Level New York Center
Sat 02:19:38 PM 41.3958 -76.1939 358° North 232 267 12,000  Level New York Center
Sat 02:20:39 PM 41.4633 -76.1911 North 232 267 12,000  Level New York Center
Sat 02:21:44 PM 41.5308 -76.1803 North 232 267 12,000 -189 Level New York Center
Sat 02:22:46 PM 41.5992 -76.1825 359° North 235 270 11,600 -738 Descending New York Center
Sat 02:23:46 PM 41.6697 -76.2125 342° North 253 291 10,500 -984 Descending New York Center
Sat 02:24:48 PM 41.7397 -76.2317 348° North 264 304 9,600 -992 Descending New York Center
Sat 02:25:53 PM 41.8147 -76.2519 349° North 265 305 8,400 -1,104 Descending New York Center
Sat 02:26:53 PM 41.8892 -76.2769 346° North 263 303 7,300 -1,024 Descending New York Center
Sat 02:27:56 PM 41.9644 -76.2944 350° North 263 303 6,300 -629 Descending New York Center
Sat 02:28:57 PM 42.0311 -76.3161 346° North 259 298 6,000 -571 Descending New York Center
Sat 02:30:02 PM 42.1061 -76.3361 349° North 248 285 5,100 -905 Descending New York Center
Sat 02:31:03 PM 42.1739 -76.3575 347° North 248 285 4,100 -537 Descending New York Center
Sat 02:32:05 PM 42.2392 -76.3803 346° North 247 284 4,000 -48 Descending New York Center
Sat 02:33:09 PM 42.3078 -76.4006 348° North 236 272 4,000 -49 Level New York Center
Sat 02:34:08 PM 42.3706 -76.4194 347° North 233 268 3,900 -339 Descending New York Center
Sat 02:35:13 PM 42.4250 -76.4142 North 202 232 3,300 -905 Descending New York Center
Sat 02:36:14 PM 42.4683 -76.4197 355° North 162 186 2,000 -1,279 Descending New York Center

Login

Don't have an account? Register now (free) for customized features, flight alerts, and more!